LTFELGSR

Guest
Details From LTFE - MILAS BODRUM
To LGSR - SANTORINI
Flight Number -
Tags generated
Created
Modified
Stats Distance 117 nm / 217 km
Max Altitude 12,600 ft / 3,840 m
Waypoints 3
Social Downloads 0
Likes 0
Share VATSIM

Download

Looking for another format? Having issues loading an existing format? Contact us
Advertisement - Login to hide

Notes

Basic altitude profile: - Ascent Rate: 2500ft/min - Ascent Speed: 250kts - Cruise Altitude: 35000ft - Cruise Speed: 420kts - Descent Rate: 1500ft/min - Descent Speed: 250kts

Route

LTFE KOPAR LGSR

ID Type Via Altitude Latitude Longitude Leg Dist Tot Dist Heading (true) Name
O LTFE APT - 0 ft / 0 m 37.25112˚ 27.66535˚ - 0 nm - MILAS BODRUM
KOPAR FIX - 12,600 ft / 3,840 m 36.83028˚ 26.68861˚ 53 nm 53 nm 242° / 241° -
O LGSR APT - 0 ft / 0 m 36.39895˚ 25.47851˚ 63 nm 117 nm 246° / 246° SANTORINI

Altitude Profile

Advertisement - Login to hide

LTFE

Details ICAO LTFE (BJV)
Name MILAS BODRUM
Region Turkey
Timezone Europe/Istanbul (UTC+3.0)
Stats Elevation 21 ft / 6 m (AMSL)
Location 37.251115° 27.665350°
Runways 1
Magnetic Variation 4.832° E

METAR

LTFE 170950Z 17016KT 9999 FEW020CB SCT035 BKN100 19/11 Q1014 RESHRA NOSIG

Decode

TAF

Not found

Departure Runways

ID Width Length Bearing (true) Bearing (mag) Surface Threshold Offset Overrun Length
11 148 ft / 45 m 9,786 ft / 2,983 m 106.68° 101.85° Concrete 0 ft / 0 m 208 ft / 63 m
29 148 ft / 45 m 9,786 ft / 2,983 m 286.70° 281.87° Concrete 0 ft / 0 m 201 ft / 61 m

LGSR

Details ICAO LGSR (JTR)
Name SANTORINI
Region Greece
Timezone Europe/Athens (UTC+2.0)
Stats Elevation 127 ft / 39 m (AMSL)
Location 36.398949° 25.478507°
Runways 2
Magnetic Variation 4.513° E

METAR

LGSR 170950Z 17010G20KT 9999 SCT025 19/13 Q1012

Decode

TAF

TAF LGSR 170500Z 1706/1806 16010G25KT 9999 FEW020 SCT030 PROB30 TEMPO 1706/1716 6000 RA FEW012 BKN020 BECMG 1710/1712 26015KT

Decode

Destination Runways

ID Width Length Bearing (true) Bearing (mag) Surface Threshold Offset Overrun Length
16L 98 ft / 30 m 6,978 ft / 2,127 m 159.53° 155.02° Asphalt 0 ft / 0 m 909 ft / 277 m
16R 98 ft / 30 m 6,969 ft / 2,124 m 159.56° 155.05° Asphalt 0 ft / 0 m 420 ft / 128 m
34L 98 ft / 30 m 6,969 ft / 2,124 m 339.56° 335.05° Asphalt 0 ft / 0 m 0 ft / 0 m
34R 98 ft / 30 m 6,978 ft / 2,127 m 339.54° 335.03° Asphalt 0 ft / 0 m 0 ft / 0 m

Popular Alternatives